sensor_id;sensor_type;location;lat;lon;timestamp;P1;durP1;ratioP1;P2;durP2;ratioP2
70455;SDS011;57916;51.996;5.180;2022-10-16T00:01:26;6.70;;;2.90;;
70455;SDS011;57916;51.996;5.180;2022-10-16T00:03:55;7.53;;;3.23;;
70455;SDS011;57916;51.996;5.180;2022-10-16T00:06:24;6.22;;;3.03;;
70455;SDS011;57916;51.996;5.180;2022-10-16T00:08:52;6.68;;;3.25;;
70455;SDS011;57916;51.996;5.180;2022-10-16T00:11:24;4.88;;;3.50;;
70455;SDS011;57916;51.996;5.180;2022-10-16T00:13:57;4.88;;;3.20;;
70455;SDS011;57916;51.996;5.180;2022-10-16T00:16:26;6.85;;;3.42;;
70455;SDS011;57916;51.996;5.180;2022-10-16T00:18:54;4.80;;;3.30;;
70455;SDS011;57916;51.996;5.180;2022-10-16T00:21:22;6.00;;;3.70;;
70455;SDS011;57916;51.996;5.180;2022-10-16T00:23:56;6.45;;;3.63;;
70455;SDS011;57916;51.996;5.180;2022-10-16T00:26:25;5.30;;;3.60;;
70455;SDS011;57916;51.996;5.180;2022-10-16T00:28:53;4.90;;;3.75;;
70455;SDS011;57916;51.996;5.180;2022-10-16T00:31:21;5.38;;;3.60;;
70455;SDS011;57916;51.996;5.180;2022-10-16T00:33:49;9.20;;;3.90;;
70455;SDS011;57916;51.996;5.180;2022-10-16T00:36:17;7.30;;;3.80;;
70455;SDS011;57916;51.996;5.180;2022-10-16T00:38:45;6.68;;;4.00;;
70455;SDS011;57916;51.996;5.180;2022-10-16T00:41:13;4.20;;;3.50;;
70455;SDS011;57916;51.996;5.180;2022-10-16T00:43:43;8.15;;;3.70;;
70455;SDS011;57916;51.996;5.180;2022-10-16T00:49:06;8.65;;;3.78;;
70455;SDS011;57916;51.996;5.180;2022-10-16T00:51:43;6.40;;;3.90;;
70455;SDS011;57916;51.996;5.180;2022-10-16T00:54:17;8.98;;;3.90;;
70455;SDS011;57916;51.996;5.180;2022-10-16T00:56:44;5.47;;;3.63;;
70455;SDS011;57916;51.996;5.180;2022-10-16T00:59:18;7.30;;;3.90;;
70455;SDS011;57916;51.996;5.180;2022-10-16T01:01:48;4.60;;;3.90;;
70455;SDS011;57916;51.996;5.180;2022-10-16T01:04:15;7.67;;;3.93;;
70455;SDS011;57916;51.996;5.180;2022-10-16T01:06:46;5.13;;;3.60;;
70455;SDS011;57916;51.996;5.180;2022-10-16T01:15:07;4.45;;;3.90;;
70455;SDS011;57916;51.996;5.180;2022-10-16T01:18:37;4.38;;;3.70;;
70455;SDS011;57916;51.996;5.180;2022-10-16T01:28:39;5.80;;;3.67;;
70455;SDS011;57916;51.996;5.180;2022-10-16T01:31:08;6.60;;;3.97;;
70455;SDS011;57916;51.996;5.180;2022-10-16T01:33:44;6.22;;;3.80;;
70455;SDS011;57916;51.996;5.180;2022-10-16T01:36:16;5.93;;;3.88;;
70455;SDS011;57916;51.996;5.180;2022-10-16T01:38:50;4.57;;;3.50;;
70455;SDS011;57916;51.996;5.180;2022-10-16T01:41:21;6.63;;;3.70;;
70455;SDS011;57916;51.996;5.180;2022-10-16T01:43:55;4.30;;;3.53;;
70455;SDS011;57916;51.996;5.180;2022-10-16T01:46:37;5.53;;;3.50;;
70455;SDS011;57916;51.996;5.180;2022-10-16T01:49:07;6.13;;;3.50;;
70455;SDS011;57916;51.996;5.180;2022-10-16T01:51:36;7.47;;;3.75;;
70455;SDS011;57916;51.996;5.180;2022-10-16T01:54:04;4.20;;;3.80;;
70455;SDS011;57916;51.996;5.180;2022-10-16T01:56:34;4.45;;;3.80;;
70455;SDS011;57916;51.996;5.180;2022-10-16T01:59:04;6.07;;;3.83;;
70455;SDS011;57916;51.996;5.180;2022-10-16T02:01:47;7.13;;;4.00;;
70455;SDS011;57916;51.996;5.180;2022-10-16T02:04:23;4.30;;;3.63;;
70455;SDS011;57916;51.996;5.180;2022-10-16T02:06:55;6.25;;;4.00;;
70455;SDS011;57916;51.996;5.180;2022-10-16T02:09:23;4.00;;;3.70;;
70455;SDS011;57916;51.996;5.180;2022-10-16T02:11:50;3.92;;;3.67;;
70455;SDS011;57916;51.996;5.180;2022-10-16T02:14:20;4.65;;;4.10;;
70455;SDS011;57916;51.996;5.180;2022-10-16T02:16:50;3.97;;;3.70;;
70455;SDS011;57916;51.996;5.180;2022-10-16T02:19:17;4.60;;;3.67;;
70455;SDS011;57916;51.996;5.180;2022-10-16T02:21:49;6.17;;;4.03;;
70455;SDS011;57916;51.996;5.180;2022-10-16T02:27:13;4.95;;;3.67;;
70455;SDS011;57916;51.996;5.180;2022-10-16T02:29:48;4.32;;;3.50;;
70455;SDS011;57916;51.996;5.180;2022-10-16T02:32:21;4.30;;;3.60;;
70455;SDS011;57916;51.996;5.180;2022-10-16T02:34:51;4.50;;;3.47;;
70455;SDS011;57916;51.996;5.180;2022-10-16T02:37:18;4.40;;;3.50;;
70455;SDS011;57916;51.996;5.180;2022-10-16T02:39:45;4.22;;;3.50;;
70455;SDS011;57916;51.996;5.180;2022-10-16T02:42:12;3.83;;;3.53;;
70455;SDS011;57916;51.996;5.180;2022-10-16T02:44:40;5.97;;;3.50;;
70455;SDS011;57916;51.996;5.180;2022-10-16T02:47:07;5.95;;;3.50;;
70455;SDS011;57916;51.996;5.180;2022-10-16T02:49:34;4.70;;;3.60;;
70455;SDS011;57916;51.996;5.180;2022-10-16T02:52:01;3.67;;;3.38;;
70455;SDS011;57916;51.996;5.180;2022-10-16T02:54:28;4.55;;;3.30;;
70455;SDS011;57916;51.996;5.180;2022-10-16T02:56:55;4.10;;;3.55;;
70455;SDS011;57916;51.996;5.180;2022-10-16T02:59:22;3.77;;;3.40;;
70455;SDS011;57916;51.996;5.180;2022-10-16T03:01:49;4.18;;;3.38;;
70455;SDS011;57916;51.996;5.180;2022-10-16T03:04:16;3.65;;;3.40;;
70455;SDS011;57916;51.996;5.180;2022-10-16T03:06:43;4.07;;;3.45;;
70455;SDS011;57916;51.996;5.180;2022-10-16T03:09:10;5.45;;;3.45;;
70455;SDS011;57916;51.996;5.180;2022-10-16T03:11:37;4.27;;;3.47;;
70455;SDS011;57916;51.996;5.180;2022-10-16T03:14:04;3.97;;;3.67;;
70455;SDS011;57916;51.996;5.180;2022-10-16T03:16:31;3.90;;;3.60;;
70455;SDS011;57916;51.996;5.180;2022-10-16T03:18:58;3.67;;;3.47;;
70455;SDS011;57916;51.996;5.180;2022-10-16T03:21:25;3.30;;;3.10;;
70455;SDS011;57916;51.996;5.180;2022-10-16T03:23:52;3.75;;;3.40;;
70455;SDS011;57916;51.996;5.180;2022-10-16T03:26:19;3.83;;;3.53;;
70455;SDS011;57916;51.996;5.180;2022-10-16T03:28:46;3.60;;;3.30;;
70455;SDS011;57916;51.996;5.180;2022-10-16T03:31:13;4.65;;;3.63;;
70455;SDS011;57916;51.996;5.180;2022-10-16T03:33:40;4.05;;;3.50;;
70455;SDS011;57916;51.996;5.180;2022-10-16T03:36:07;3.50;;;3.20;;
70455;SDS011;57916;51.996;5.180;2022-10-16T03:38:33;4.07;;;3.50;;
70455;SDS011;57916;51.996;5.180;2022-10-16T03:41:00;3.78;;;3.58;;
70455;SDS011;57916;51.996;5.180;2022-10-16T03:43:27;4.43;;;3.30;;
70455;SDS011;57916;51.996;5.180;2022-10-16T03:45:54;5.93;;;3.58;;
70455;SDS011;57916;51.996;5.180;2022-10-16T03:48:21;4.78;;;3.38;;
70455;SDS011;57916;51.996;5.180;2022-10-16T03:50:48;6.80;;;3.65;;
70455;SDS011;57916;51.996;5.180;2022-10-16T03:53:16;3.72;;;3.33;;
70455;SDS011;57916;51.996;5.180;2022-10-16T03:55:44;5.15;;;3.55;;
70455;SDS011;57916;51.996;5.180;2022-10-16T03:58:11;4.03;;;3.25;;
70455;SDS011;57916;51.996;5.180;2022-10-16T04:00:42;4.55;;;3.25;;
70455;SDS011;57916;51.996;5.180;2022-10-16T04:03:10;3.90;;;3.50;;
70455;SDS011;57916;51.996;5.180;2022-10-16T04:05:37;6.25;;;3.20;;
70455;SDS011;57916;51.996;5.180;2022-10-16T04:08:04;3.78;;;3.45;;
70455;SDS011;57916;51.996;5.180;2022-10-16T04:10:32;3.72;;;3.38;;
70455;SDS011;57916;51.996;5.180;2022-10-16T04:12:59;3.17;;;2.97;;
70455;SDS011;57916;51.996;5.180;2022-10-16T04:15:26;3.55;;;3.10;;
70455;SDS011;57916;51.996;5.180;2022-10-16T04:17:52;3.72;;;3.17;;
70455;SDS011;57916;51.996;5.180;2022-10-16T04:20:19;5.65;;;3.20;;
70455;SDS011;57916;51.996;5.180;2022-10-16T04:22:46;3.45;;;3.25;;
70455;SDS011;57916;51.996;5.180;2022-10-16T04:25:13;4.00;;;3.67;;
70455;SDS011;57916;51.996;5.180;2022-10-16T04:27:40;4.20;;;3.80;;
70455;SDS011;57916;51.996;5.180;2022-10-16T04:30:11;4.32;;;3.58;;
70455;SDS011;57916;51.996;5.180;2022-10-16T04:32:38;3.90;;;3.50;;
70455;SDS011;57916;51.996;5.180;2022-10-16T04:35:05;3.65;;;3.13;;
70455;SDS011;57916;51.996;5.180;2022-10-16T04:37:33;3.65;;;3.20;;
70455;SDS011;57916;51.996;5.180;2022-10-16T04:40:00;4.33;;;2.90;;
70455;SDS011;57916;51.996;5.180;2022-10-16T04:42:27;3.25;;;2.97;;
70455;SDS011;57916;51.996;5.180;2022-10-16T04:44:54;4.93;;;3.10;;
70455;SDS011;57916;51.996;5.180;2022-10-16T04:47:21;3.45;;;2.72;;
70455;SDS011;57916;51.996;5.180;2022-10-16T04:49:47;3.28;;;3.08;;
70455;SDS011;57916;51.996;5.180;2022-10-16T04:52:15;3.50;;;3.20;;
70455;SDS011;57916;51.996;5.180;2022-10-16T04:54:42;3.42;;;3.22;;
70455;SDS011;57916;51.996;5.180;2022-10-16T04:57:11;4.90;;;3.50;;
70455;SDS011;57916;51.996;5.180;2022-10-16T04:59:38;4.35;;;3.10;;
70455;SDS011;57916;51.996;5.180;2022-10-16T05:02:05;3.90;;;3.20;;
70455;SDS011;57916;51.996;5.180;2022-10-16T05:04:32;3.30;;;3.10;;
70455;SDS011;57916;51.996;5.180;2022-10-16T05:06:59;3.55;;;3.28;;
70455;SDS011;57916;51.996;5.180;2022-10-16T05:09:27;6.67;;;3.07;;
70455;SDS011;57916;51.996;5.180;2022-10-16T05:11:54;4.28;;;3.20;;
70455;SDS011;57916;51.996;5.180;2022-10-16T05:14:20;3.95;;;3.30;;
70455;SDS011;57916;51.996;5.180;2022-10-16T05:16:47;4.03;;;3.53;;
70455;SDS011;57916;51.996;5.180;2022-10-16T05:19:15;4.47;;;3.30;;
70455;SDS011;57916;51.996;5.180;2022-10-16T05:21:57;4.47;;;3.40;;
70455;SDS011;57916;51.996;5.180;2022-10-16T05:24:24;3.85;;;3.50;;
70455;SDS011;57916;51.996;5.180;2022-10-16T05:26:52;3.75;;;3.40;;
70455;SDS011;57916;51.996;5.180;2022-10-16T05:29:19;6.78;;;3.92;;
70455;SDS011;57916;51.996;5.180;2022-10-16T05:31:46;4.03;;;3.72;;
70455;SDS011;57916;51.996;5.180;2022-10-16T05:34:15;4.95;;;3.67;;
70455;SDS011;57916;51.996;5.180;2022-10-16T05:36:43;4.85;;;3.55;;
70455;SDS011;57916;51.996;5.180;2022-10-16T05:39:11;3.95;;;3.60;;
70455;SDS011;57916;51.996;5.180;2022-10-16T05:41:40;5.32;;;3.80;;
70455;SDS011;57916;51.996;5.180;2022-10-16T05:44:07;5.28;;;3.45;;
70455;SDS011;57916;51.996;5.180;2022-10-16T05:46:33;5.38;;;3.80;;
70455;SDS011;57916;51.996;5.180;2022-10-16T05:49:00;4.00;;;3.78;;
70455;SDS011;57916;51.996;5.180;2022-10-16T05:51:28;3.90;;;3.50;;
70455;SDS011;57916;51.996;5.180;2022-10-16T05:53:55;4.32;;;3.58;;
70455;SDS011;57916;51.996;5.180;2022-10-16T05:56:22;4.05;;;3.65;;
70455;SDS011;57916;51.996;5.180;2022-10-16T05:58:48;5.13;;;3.80;;
70455;SDS011;57916;51.996;5.180;2022-10-16T06:01:16;5.07;;;3.43;;
70455;SDS011;57916;51.996;5.180;2022-10-16T06:03:45;4.63;;;3.90;;
70455;SDS011;57916;51.996;5.180;2022-10-16T06:06:14;5.80;;;3.90;;
70455;SDS011;57916;51.996;5.180;2022-10-16T06:08:43;5.18;;;3.72;;
70455;SDS011;57916;51.996;5.180;2022-10-16T06:11:15;4.18;;;3.83;;
70455;SDS011;57916;51.996;5.180;2022-10-16T06:13:43;4.47;;;4.07;;
70455;SDS011;57916;51.996;5.180;2022-10-16T06:16:12;4.20;;;3.80;;
70455;SDS011;57916;51.996;5.180;2022-10-16T06:18:39;4.57;;;4.05;;
70455;SDS011;57916;51.996;5.180;2022-10-16T06:21:11;5.00;;;3.83;;
70455;SDS011;57916;51.996;5.180;2022-10-16T06:23:40;5.70;;;4.23;;
70455;SDS011;57916;51.996;5.180;2022-10-16T06:26:08;8.00;;;4.30;;
70455;SDS011;57916;51.996;5.180;2022-10-16T06:28:36;6.50;;;4.00;;
70455;SDS011;57916;51.996;5.180;2022-10-16T06:31:04;7.75;;;4.10;;
70455;SDS011;57916;51.996;5.180;2022-10-16T06:33:34;4.40;;;4.00;;
70455;SDS011;57916;51.996;5.180;2022-10-16T06:36:06;5.90;;;4.10;;
70455;SDS011;57916;51.996;5.180;2022-10-16T06:38:35;4.20;;;3.90;;
70455;SDS011;57916;51.996;5.180;2022-10-16T06:41:02;5.25;;;4.20;;
70455;SDS011;57916;51.996;5.180;2022-10-16T06:43:30;8.63;;;4.30;;
70455;SDS011;57916;51.996;5.180;2022-10-16T06:45:58;4.40;;;4.00;;
70455;SDS011;57916;51.996;5.180;2022-10-16T06:48:26;5.22;;;4.05;;
70455;SDS011;57916;51.996;5.180;2022-10-16T06:50:54;9.60;;;4.20;;
70455;SDS011;57916;51.996;5.180;2022-10-16T06:53:23;4.38;;;3.80;;
70455;SDS011;57916;51.996;5.180;2022-10-16T06:55:51;6.10;;;3.85;;
70455;SDS011;57916;51.996;5.180;2022-10-16T06:58:18;6.68;;;4.00;;
70455;SDS011;57916;51.996;5.180;2022-10-16T07:00:45;4.10;;;3.70;;
70455;SDS011;57916;51.996;5.180;2022-10-16T07:03:13;7.32;;;3.80;;
70455;SDS011;57916;51.996;5.180;2022-10-16T07:05:43;5.38;;;3.95;;
70455;SDS011;57916;51.996;5.180;2022-10-16T07:08:10;5.18;;;4.00;;
70455;SDS011;57916;51.996;5.180;2022-10-16T07:10:37;8.15;;;4.05;;
70455;SDS011;57916;51.996;5.180;2022-10-16T07:13:03;4.95;;;4.40;;
70455;SDS011;57916;51.996;5.180;2022-10-16T07:15:30;5.70;;;4.57;;
70455;SDS011;57916;51.996;5.180;2022-10-16T07:17:57;11.48;;;4.63;;
70455;SDS011;57916;51.996;5.180;2022-10-16T07:20:24;7.53;;;4.90;;
70455;SDS011;57916;51.996;5.180;2022-10-16T07:22:52;5.22;;;4.80;;
70455;SDS011;57916;51.996;5.180;2022-10-16T07:25:18;6.47;;;4.77;;
70455;SDS011;57916;51.996;5.180;2022-10-16T07:27:45;5.65;;;4.88;;
70455;SDS011;57916;51.996;5.180;2022-10-16T07:30:13;6.00;;;4.80;;
70455;SDS011;57916;51.996;5.180;2022-10-16T07:32:39;7.22;;;4.90;;
70455;SDS011;57916;51.996;5.180;2022-10-16T07:35:06;5.00;;;4.32;;
70455;SDS011;57916;51.996;5.180;2022-10-16T07:37:33;6.80;;;4.53;;
70455;SDS011;57916;51.996;5.180;2022-10-16T07:40:00;5.20;;;4.40;;
70455;SDS011;57916;51.996;5.180;2022-10-16T07:42:27;5.43;;;4.75;;
70455;SDS011;57916;51.996;5.180;2022-10-16T07:44:55;6.43;;;4.40;;
70455;SDS011;57916;51.996;5.180;2022-10-16T07:47:22;10.25;;;4.50;;
70455;SDS011;57916;51.996;5.180;2022-10-16T07:49:49;5.57;;;4.30;;
70455;SDS011;57916;51.996;5.180;2022-10-16T07:52:16;5.00;;;4.50;;
70455;SDS011;57916;51.996;5.180;2022-10-16T07:54:43;6.35;;;4.63;;
70455;SDS011;57916;51.996;5.180;2022-10-16T07:57:10;6.18;;;4.60;;
70455;SDS011;57916;51.996;5.180;2022-10-16T07:59:37;5.22;;;4.25;;
70455;SDS011;57916;51.996;5.180;2022-10-16T08:02:04;5.88;;;4.20;;
70455;SDS011;57916;51.996;5.180;2022-10-16T08:04:31;4.35;;;4.05;;
70455;SDS011;57916;51.996;5.180;2022-10-16T08:06:58;4.95;;;4.10;;
70455;SDS011;57916;51.996;5.180;2022-10-16T08:09:25;8.20;;;4.10;;
70455;SDS011;57916;51.996;5.180;2022-10-16T08:11:52;3.80;;;3.40;;
70455;SDS011;57916;51.996;5.180;2022-10-16T08:14:19;5.43;;;3.40;;
70455;SDS011;57916;51.996;5.180;2022-10-16T08:16:45;5.05;;;3.30;;
70455;SDS011;57916;51.996;5.180;2022-10-16T08:19:12;4.40;;;2.90;;
70455;SDS011;57916;51.996;5.180;2022-10-16T08:21:41;3.30;;;2.90;;
70455;SDS011;57916;51.996;5.180;2022-10-16T08:24:08;5.20;;;3.20;;
70455;SDS011;57916;51.996;5.180;2022-10-16T08:26:35;5.68;;;3.05;;
70455;SDS011;57916;51.996;5.180;2022-10-16T08:29:02;5.18;;;3.22;;
70455;SDS011;57916;51.996;5.180;2022-10-16T08:31:29;7.60;;;3.00;;
70455;SDS011;57916;51.996;5.180;2022-10-16T08:33:56;7.50;;;2.90;;
70455;SDS011;57916;51.996;5.180;2022-10-16T08:36:23;4.22;;;2.70;;
70455;SDS011;57916;51.996;5.180;2022-10-16T08:38:50;4.55;;;2.78;;
70455;SDS011;57916;51.996;5.180;2022-10-16T08:41:22;6.50;;;2.97;;
70455;SDS011;57916;51.996;5.180;2022-10-16T08:44:25;5.82;;;3.00;;
70455;SDS011;57916;51.996;5.180;2022-10-16T08:49:47;6.13;;;2.90;;
70455;SDS011;57916;51.996;5.180;2022-10-16T08:52:25;5.22;;;2.95;;
70455;SDS011;57916;51.996;5.180;2022-10-16T08:55:00;5.85;;;2.90;;
70455;SDS011;57916;51.996;5.180;2022-10-16T08:57:29;5.93;;;2.90;;
70455;SDS011;57916;51.996;5.180;2022-10-16T09:00:00;3.37;;;2.80;;
70455;SDS011;57916;51.996;5.180;2022-10-16T09:02:37;6.55;;;2.60;;
70455;SDS011;57916;51.996;5.180;2022-10-16T09:05:28;6.07;;;2.47;;
70455;SDS011;57916;51.996;5.180;2022-10-16T09:08:17;4.47;;;2.40;;
70455;SDS011;57916;51.996;5.180;2022-10-16T09:10:59;7.77;;;2.73;;
70455;SDS011;57916;51.996;5.180;2022-10-16T09:16:14;6.03;;;2.43;;
70455;SDS011;57916;51.996;5.180;2022-10-16T09:19:15;8.07;;;2.47;;
70455;SDS011;57916;51.996;5.180;2022-10-16T09:21:46;6.65;;;2.40;;
70455;SDS011;57916;51.996;5.180;2022-10-16T09:24:15;7.03;;;2.40;;
70455;SDS011;57916;51.996;5.180;2022-10-16T09:26:53;8.25;;;2.60;;
70455;SDS011;57916;51.996;5.180;2022-10-16T09:29:21;5.85;;;2.42;;
70455;SDS011;57916;51.996;5.180;2022-10-16T09:31:49;5.35;;;2.30;;
70455;SDS011;57916;51.996;5.180;2022-10-16T09:34:21;6.55;;;2.30;;
70455;SDS011;57916;51.996;5.180;2022-10-16T09:37:00;10.82;;;2.67;;
70455;SDS011;57916;51.996;5.180;2022-10-16T09:39:43;9.20;;;2.60;;
70455;SDS011;57916;51.996;5.180;2022-10-16T09:42:16;7.75;;;2.30;;
70455;SDS011;57916;51.996;5.180;2022-10-16T09:44:48;8.88;;;2.60;;
70455;SDS011;57916;51.996;5.180;2022-10-16T09:47:23;6.50;;;2.43;;
70455;SDS011;57916;51.996;5.180;2022-10-16T09:49:58;4.50;;;2.05;;
70455;SDS011;57916;51.996;5.180;2022-10-16T09:52:28;10.25;;;2.60;;
70455;SDS011;57916;51.996;5.180;2022-10-16T09:54:57;11.52;;;2.85;;
70455;SDS011;57916;51.996;5.180;2022-10-16T09:57:28;13.57;;;2.50;;
70455;SDS011;57916;51.996;5.180;2022-10-16T09:59:57;11.50;;;2.67;;
70455;SDS011;57916;51.996;5.180;2022-10-16T10:02:36;7.90;;;2.17;;
70455;SDS011;57916;51.996;5.180;2022-10-16T10:05:04;8.60;;;2.40;;
70455;SDS011;57916;51.996;5.180;2022-10-16T10:07:43;8.95;;;2.78;;
70455;SDS011;57916;51.996;5.180;2022-10-16T10:10:22;8.37;;;2.50;;
70455;SDS011;57916;51.996;5.180;2022-10-16T10:12:49;11.13;;;2.60;;
70455;SDS011;57916;51.996;5.180;2022-10-16T10:15:16;11.68;;;2.50;;
70455;SDS011;57916;51.996;5.180;2022-10-16T10:17:48;6.88;;;2.40;;
70455;SDS011;57916;51.996;5.180;2022-10-16T10:22:52;9.50;;;2.60;;
70455;SDS011;57916;51.996;5.180;2022-10-16T10:28:24;8.48;;;2.45;;
70455;SDS011;57916;51.996;5.180;2022-10-16T10:38:54;6.97;;;2.90;;
70455;SDS011;57916;51.996;5.180;2022-10-16T10:47:01;10.90;;;2.83;;
70455;SDS011;57916;51.996;5.180;2022-10-16T10:55:13;10.70;;;3.00;;
70455;SDS011;57916;51.996;5.180;2022-10-16T11:06:33;10.30;;;2.88;;
70455;SDS011;57916;51.996;5.180;2022-10-16T11:09:10;12.65;;;2.88;;
70455;SDS011;57916;51.996;5.180;2022-10-16T11:11:49;13.20;;;2.90;;
70455;SDS011;57916;51.996;5.180;2022-10-16T11:14:25;10.68;;;2.83;;
70455;SDS011;57916;51.996;5.180;2022-10-16T11:16:59;10.55;;;3.00;;
70455;SDS011;57916;51.996;5.180;2022-10-16T11:19:37;10.77;;;2.97;;
70455;SDS011;57916;51.996;5.180;2022-10-16T11:22:24;11.68;;;2.60;;
70455;SDS011;57916;51.996;5.180;2022-10-16T11:30:21;9.07;;;2.53;;
70455;SDS011;57916;51.996;5.180;2022-10-16T11:33:02;8.68;;;2.53;;
70455;SDS011;57916;51.996;5.180;2022-10-16T11:38:39;7.82;;;2.20;;
70455;SDS011;57916;51.996;5.180;2022-10-16T11:41:53;10.93;;;2.60;;
70455;SDS011;57916;51.996;5.180;2022-10-16T11:47:41;12.32;;;2.30;;
70455;SDS011;57916;51.996;5.180;2022-10-16T11:55:43;8.90;;;2.50;;
70455;SDS011;57916;51.996;5.180;2022-10-16T11:58:15;11.43;;;2.50;;
70455;SDS011;57916;51.996;5.180;2022-10-16T12:06:12;7.88;;;2.65;;
70455;SDS011;57916;51.996;5.180;2022-10-16T12:08:58;12.32;;;2.45;;
70455;SDS011;57916;51.996;5.180;2022-10-16T12:16:38;11.45;;;2.53;;
70455;SDS011;57916;51.996;5.180;2022-10-16T12:19:19;14.13;;;2.55;;
70455;SDS011;57916;51.996;5.180;2022-10-16T12:21:47;9.20;;;2.70;;
70455;SDS011;57916;51.996;5.180;2022-10-16T12:24:34;16.45;;;3.10;;
70455;SDS011;57916;51.996;5.180;2022-10-16T12:27:02;8.00;;;2.60;;
70455;SDS011;57916;51.996;5.180;2022-10-16T12:35:20;10.38;;;2.80;;
70455;SDS011;57916;51.996;5.180;2022-10-16T12:37:50;12.18;;;2.55;;
70455;SDS011;57916;51.996;5.180;2022-10-16T12:40:28;12.10;;;2.80;;
70455;SDS011;57916;51.996;5.180;2022-10-16T12:42:57;14.18;;;2.75;;
70455;SDS011;57916;51.996;5.180;2022-10-16T12:45:29;11.15;;;2.80;;
70455;SDS011;57916;51.996;5.180;2022-10-16T12:47:58;10.73;;;2.55;;
70455;SDS011;57916;51.996;5.180;2022-10-16T12:50:36;13.70;;;2.63;;
70455;SDS011;57916;51.996;5.180;2022-10-16T12:53:21;11.65;;;2.50;;
70455;SDS011;57916;51.996;5.180;2022-10-16T12:56:24;11.30;;;2.78;;
70455;SDS011;57916;51.996;5.180;2022-10-16T13:04:31;11.60;;;2.45;;
70455;SDS011;57916;51.996;5.180;2022-10-16T13:12:38;6.93;;;2.40;;
70455;SDS011;57916;51.996;5.180;2022-10-16T13:23:58;13.50;;;2.63;;
70455;SDS011;57916;51.996;5.180;2022-10-16T13:27:33;7.38;;;2.53;;
70455;SDS011;57916;51.996;5.180;2022-10-16T13:29:42;11.13;;;2.50;;
70455;SDS011;57916;51.996;5.180;2022-10-16T13:32:10;13.70;;;2.90;;
70455;SDS011;57916;51.996;5.180;2022-10-16T13:34:45;6.55;;;2.55;;
70455;SDS011;57916;51.996;5.180;2022-10-16T13:37:17;10.73;;;2.60;;
70455;SDS011;57916;51.996;5.180;2022-10-16T13:39:48;12.67;;;2.80;;
70455;SDS011;57916;51.996;5.180;2022-10-16T13:42:26;11.75;;;2.83;;
70455;SDS011;57916;51.996;5.180;2022-10-16T13:44:55;7.80;;;2.50;;
70455;SDS011;57916;51.996;5.180;2022-10-16T13:47:27;9.15;;;2.30;;
70455;SDS011;57916;51.996;5.180;2022-10-16T13:50:02;12.50;;;2.65;;
70455;SDS011;57916;51.996;5.180;2022-10-16T13:52:31;14.05;;;3.03;;
70455;SDS011;57916;51.996;5.180;2022-10-16T13:54:58;8.25;;;2.42;;
70455;SDS011;57916;51.996;5.180;2022-10-16T13:57:27;13.13;;;2.97;;
70455;SDS011;57916;51.996;5.180;2022-10-16T13:59:55;9.30;;;2.60;;
70455;SDS011;57916;51.996;5.180;2022-10-16T14:04:54;10.07;;;2.80;;
70455;SDS011;57916;51.996;5.180;2022-10-16T14:07:26;12.10;;;2.70;;
70455;SDS011;57916;51.996;5.180;2022-10-16T14:09:55;13.47;;;2.80;;
70455;SDS011;57916;51.996;5.180;2022-10-16T14:12:26;13.30;;;2.73;;
70455;SDS011;57916;51.996;5.180;2022-10-16T14:14:54;19.17;;;3.85;;
70455;SDS011;57916;51.996;5.180;2022-10-16T14:17:24;10.70;;;3.05;;
70455;SDS011;57916;51.996;5.180;2022-10-16T14:19:54;12.38;;;2.90;;
70455;SDS011;57916;51.996;5.180;2022-10-16T14:25:01;12.48;;;2.63;;
70455;SDS011;57916;51.996;5.180;2022-10-16T14:30:35;11.65;;;2.85;;
70455;SDS011;57916;51.996;5.180;2022-10-16T14:33:06;13.55;;;2.80;;
70455;SDS011;57916;51.996;5.180;2022-10-16T14:35:46;11.50;;;2.60;;
70455;SDS011;57916;51.996;5.180;2022-10-16T14:38:22;7.97;;;2.63;;
70455;SDS011;57916;51.996;5.180;2022-10-16T14:40:50;10.73;;;2.85;;
70455;SDS011;57916;51.996;5.180;2022-10-16T14:43:22;8.38;;;2.58;;
70455;SDS011;57916;51.996;5.180;2022-10-16T14:45:55;12.82;;;2.67;;
70455;SDS011;57916;51.996;5.180;2022-10-16T14:48:23;11.90;;;2.65;;
70455;SDS011;57916;51.996;5.180;2022-10-16T14:50:50;8.18;;;2.35;;
70455;SDS011;57916;51.996;5.180;2022-10-16T14:53:17;10.63;;;2.55;;
70455;SDS011;57916;51.996;5.180;2022-10-16T14:55:44;14.52;;;2.75;;
70455;SDS011;57916;51.996;5.180;2022-10-16T14:58:15;12.65;;;2.67;;
70455;SDS011;57916;51.996;5.180;2022-10-16T15:00:47;13.48;;;2.78;;
70455;SDS011;57916;51.996;5.180;2022-10-16T15:03:15;9.43;;;2.70;;
70455;SDS011;57916;51.996;5.180;2022-10-16T15:05:42;12.75;;;2.83;;
70455;SDS011;57916;51.996;5.180;2022-10-16T15:08:09;8.88;;;2.63;;
70455;SDS011;57916;51.996;5.180;2022-10-16T15:10:40;12.70;;;2.60;;
70455;SDS011;57916;51.996;5.180;2022-10-16T15:13:12;14.50;;;2.70;;
70455;SDS011;57916;51.996;5.180;2022-10-16T15:15:42;9.57;;;2.63;;
70455;SDS011;57916;51.996;5.180;2022-10-16T15:18:10;12.43;;;2.80;;
70455;SDS011;57916;51.996;5.180;2022-10-16T15:20:38;9.35;;;2.67;;
70455;SDS011;57916;51.996;5.180;2022-10-16T15:23:09;10.63;;;3.05;;
70455;SDS011;57916;51.996;5.180;2022-10-16T15:25:45;12.38;;;2.85;;
70455;SDS011;57916;51.996;5.180;2022-10-16T15:28:14;10.85;;;2.75;;
70455;SDS011;57916;51.996;5.180;2022-10-16T15:30:42;12.82;;;2.75;;
70455;SDS011;57916;51.996;5.180;2022-10-16T15:33:19;8.90;;;2.67;;
70455;SDS011;57916;51.996;5.180;2022-10-16T15:35:52;10.13;;;2.60;;
70455;SDS011;57916;51.996;5.180;2022-10-16T15:38:20;14.70;;;3.08;;
70455;SDS011;57916;51.996;5.180;2022-10-16T15:40:48;14.83;;;2.93;;
70455;SDS011;57916;51.996;5.180;2022-10-16T15:43:15;18.48;;;3.40;;
70455;SDS011;57916;51.996;5.180;2022-10-16T15:45:42;11.63;;;2.72;;
70455;SDS011;57916;51.996;5.180;2022-10-16T15:48:12;11.80;;;2.78;;
70455;SDS011;57916;51.996;5.180;2022-10-16T15:50:39;13.93;;;2.78;;
70455;SDS011;57916;51.996;5.180;2022-10-16T15:53:07;10.27;;;3.10;;
70455;SDS011;57916;51.996;5.180;2022-10-16T15:55:34;12.10;;;2.80;;
70455;SDS011;57916;51.996;5.180;2022-10-16T15:58:04;11.27;;;2.83;;
70455;SDS011;57916;51.996;5.180;2022-10-16T16:00:31;10.30;;;2.80;;
70455;SDS011;57916;51.996;5.180;2022-10-16T16:02:58;10.05;;;2.85;;
70455;SDS011;57916;51.996;5.180;2022-10-16T16:05:25;10.95;;;2.70;;
70455;SDS011;57916;51.996;5.180;2022-10-16T16:07:53;9.10;;;2.63;;
70455;SDS011;57916;51.996;5.180;2022-10-16T16:10:20;12.35;;;3.08;;
70455;SDS011;57916;51.996;5.180;2022-10-16T16:12:48;12.77;;;2.92;;
70455;SDS011;57916;51.996;5.180;2022-10-16T16:15:18;12.80;;;2.78;;
70455;SDS011;57916;51.996;5.180;2022-10-16T16:17:47;9.05;;;2.80;;
70455;SDS011;57916;51.996;5.180;2022-10-16T16:20:15;12.30;;;3.15;;
70455;SDS011;57916;51.996;5.180;2022-10-16T16:22:42;21.05;;;3.00;;
70455;SDS011;57916;51.996;5.180;2022-10-16T16:25:08;14.68;;;2.85;;
70455;SDS011;57916;51.996;5.180;2022-10-16T16:27:36;13.70;;;3.22;;
70455;SDS011;57916;51.996;5.180;2022-10-16T16:30:05;9.40;;;2.85;;
70455;SDS011;57916;51.996;5.180;2022-10-16T16:32:33;11.23;;;2.97;;
70455;SDS011;57916;51.996;5.180;2022-10-16T16:35:01;18.73;;;7.20;;
70455;SDS011;57916;51.996;5.180;2022-10-16T16:37:29;11.50;;;4.00;;
70455;SDS011;57916;51.996;5.180;2022-10-16T16:39:56;10.82;;;2.90;;
70455;SDS011;57916;51.996;5.180;2022-10-16T16:42:27;11.75;;;2.72;;
70455;SDS011;57916;51.996;5.180;2022-10-16T16:44:54;9.50;;;2.88;;
70455;SDS011;57916;51.996;5.180;2022-10-16T16:47:21;9.02;;;3.10;;
70455;SDS011;57916;51.996;5.180;2022-10-16T16:49:48;14.43;;;3.60;;
70455;SDS011;57916;51.996;5.180;2022-10-16T16:52:15;11.60;;;3.85;;
70455;SDS011;57916;51.996;5.180;2022-10-16T16:54:43;14.55;;;3.35;;
70455;SDS011;57916;51.996;5.180;2022-10-16T16:57:11;12.13;;;2.95;;
70455;SDS011;57916;51.996;5.180;2022-10-16T16:59:38;9.00;;;2.65;;
70455;SDS011;57916;51.996;5.180;2022-10-16T17:02:05;11.13;;;2.73;;